sensor_id;sensor_type;location;lat;lon;timestamp;pressure;altitude;pressure_sealevel;temperature;humidity
30949;BME280;17637;51.984;21.208;2023-01-19T00:01:03;98977.16;;;1.57;78.43
30949;BME280;17637;51.984;21.208;2023-01-19T00:03:35;99009.47;;;1.74;78.37
30949;BME280;17637;51.984;21.208;2023-01-19T00:06:07;99029.47;;;1.84;78.26
30949;BME280;17637;51.984;21.208;2023-01-19T00:08:40;99014.75;;;1.87;78.13
30949;BME280;17637;51.984;21.208;2023-01-19T00:11:12;99013.53;;;1.78;78.11
30949;BME280;17637;51.984;21.208;2023-01-19T00:13:44;98974.13;;;1.51;78.10
30949;BME280;17637;51.984;21.208;2023-01-19T00:16:24;99020.78;;;1.86;78.03
30949;BME280;17637;51.984;21.208;2023-01-19T00:18:56;99030.75;;;1.91;77.93
30949;BME280;17637;51.984;21.208;2023-01-19T00:21:28;99044.88;;;1.98;77.62
30949;BME280;17637;51.984;21.208;2023-01-19T00:24:00;99043.22;;;1.97;77.86
30949;BME280;17637;51.984;21.208;2023-01-19T00:26:32;99043.78;;;2.02;77.92
30949;BME280;17637;51.984;21.208;2023-01-19T00:29:04;99036.00;;;2.04;77.67
30949;BME280;17637;51.984;21.208;2023-01-19T00:31:37;99057.22;;;1.91;78.00
30949;BME280;17637;51.984;21.208;2023-01-19T00:34:09;99058.88;;;1.92;78.02
30949;BME280;17637;51.984;21.208;2023-01-19T00:36:41;99007.53;;;1.63;77.70
30949;BME280;17637;51.984;21.208;2023-01-19T00:39:13;99043.75;;;1.88;77.81
30949;BME280;17637;51.984;21.208;2023-01-19T00:41:46;99058.69;;;1.95;77.81
30949;BME280;17637;51.984;21.208;2023-01-19T00:44:36;99053.19;;;1.87;77.51
30949;BME280;17637;51.984;21.208;2023-01-19T00:47:08;99025.16;;;1.54;78.07
30949;BME280;17637;51.984;21.208;2023-01-19T00:49:40;99045.84;;;1.81;77.95
30949;BME280;17637;51.984;21.208;2023-01-19T00:52:12;99024.00;;;1.59;78.17
30949;BME280;17637;51.984;21.208;2023-01-19T00:54:44;99034.94;;;1.77;77.93
30949;BME280;17637;51.984;21.208;2023-01-19T00:57:16;99044.00;;;1.83;77.70
30949;BME280;17637;51.984;21.208;2023-01-19T00:59:49;99025.84;;;1.72;77.70
30949;BME280;17637;51.984;21.208;2023-01-19T01:02:21;99045.66;;;1.84;78.60
30949;BME280;17637;51.984;21.208;2023-01-19T01:04:54;99040.19;;;1.90;77.84
30949;BME280;17637;51.984;21.208;2023-01-19T01:07:28;99039.19;;;1.93;77.68
30949;BME280;17637;51.984;21.208;2023-01-19T01:10:00;99033.38;;;1.75;77.62
30949;BME280;17637;51.984;21.208;2023-01-19T01:12:32;99029.16;;;1.74;77.97
30949;BME280;17637;51.984;21.208;2023-01-19T01:15:09;99035.69;;;1.79;78.11
30949;BME280;17637;51.984;21.208;2023-01-19T01:17:42;99038.88;;;1.83;77.71
30949;BME280;17637;51.984;21.208;2023-01-19T01:20:20;99025.66;;;1.60;78.70
30949;BME280;17637;51.984;21.208;2023-01-19T01:22:53;99046.84;;;1.78;77.95
30949;BME280;17637;51.984;21.208;2023-01-19T01:25:26;99026.22;;;1.66;77.82
30949;BME280;17637;51.984;21.208;2023-01-19T01:27:59;99031.81;;;1.72;78.06
30949;BME280;17637;51.984;21.208;2023-01-19T01:30:31;99046.56;;;1.83;78.15
30949;BME280;17637;51.984;21.208;2023-01-19T01:33:03;99046.84;;;1.78;78.07
30949;BME280;17637;51.984;21.208;2023-01-19T01:35:36;99050.63;;;1.87;78.41
30949;BME280;17637;51.984;21.208;2023-01-19T01:38:08;99044.84;;;1.84;78.25
30949;BME280;17637;51.984;21.208;2023-01-19T01:40:40;99055.09;;;1.84;78.03
30949;BME280;17637;51.984;21.208;2023-01-19T01:43:14;99040.16;;;1.76;77.70
30949;BME280;17637;51.984;21.208;2023-01-19T01:45:47;99044.94;;;1.82;78.19
30949;BME280;17637;51.984;21.208;2023-01-19T01:48:26;99028.16;;;1.76;77.95
30949;BME280;17637;51.984;21.208;2023-01-19T01:51:07;99043.19;;;1.83;77.86
30949;BME280;17637;51.984;21.208;2023-01-19T01:54:16;99051.19;;;1.92;77.43
30949;BME280;17637;51.984;21.208;2023-01-19T01:56:51;99053.75;;;1.92;77.60
30949;BME280;17637;51.984;21.208;2023-01-19T01:59:28;99040.94;;;1.92;77.07
30949;BME280;17637;51.984;21.208;2023-01-19T02:02:08;99035.72;;;1.94;77.24
30949;BME280;17637;51.984;21.208;2023-01-19T02:05:04;99032.75;;;1.86;76.99
30949;BME280;17637;51.984;21.208;2023-01-19T02:07:45;99041.56;;;1.96;76.92
30949;BME280;17637;51.984;21.208;2023-01-19T02:10:40;99028.13;;;1.92;76.60
30949;BME280;17637;51.984;21.208;2023-01-19T02:13:34;99020.38;;;1.78;76.76
30949;BME280;17637;51.984;21.208;2023-01-19T02:16:08;99029.56;;;1.82;76.76
30949;BME280;17637;51.984;21.208;2023-01-19T02:18:41;99015.69;;;1.70;77.37
30949;BME280;17637;51.984;21.208;2023-01-19T02:21:40;99003.41;;;1.61;76.71
30949;BME280;17637;51.984;21.208;2023-01-19T02:24:15;99029.00;;;1.77;77.02
30949;BME280;17637;51.984;21.208;2023-01-19T02:26:48;98995.25;;;1.54;76.75
30949;BME280;17637;51.984;21.208;2023-01-19T02:29:23;98990.66;;;1.45;76.47
30949;BME280;17637;51.984;21.208;2023-01-19T02:31:57;99014.84;;;1.55;76.47
30949;BME280;17637;51.984;21.208;2023-01-19T02:34:30;98989.09;;;1.42;76.76
30949;BME280;17637;51.984;21.208;2023-01-19T02:37:08;99030.59;;;1.63;76.91
30949;BME280;17637;51.984;21.208;2023-01-19T02:39:46;99002.38;;;1.49;76.43
30949;BME280;17637;51.984;21.208;2023-01-19T02:42:26;99017.22;;;1.58;76.41
30949;BME280;17637;51.984;21.208;2023-01-19T02:45:00;99015.09;;;1.51;76.59
30949;BME280;17637;51.984;21.208;2023-01-19T02:47:43;99013.91;;;1.56;76.88
30949;BME280;17637;51.984;21.208;2023-01-19T02:56:27;99034.16;;;1.61;77.19
30949;BME280;17637;51.984;21.208;2023-01-19T03:05:12;99016.47;;;1.56;76.97
30949;BME280;17637;51.984;21.208;2023-01-19T03:11:07;99036.38;;;1.67;76.83
30949;BME280;17637;51.984;21.208;2023-01-19T03:13:50;99040.03;;;1.63;76.95
30949;BME280;17637;51.984;21.208;2023-01-19T03:16:37;99031.34;;;1.66;76.63
30949;BME280;17637;51.984;21.208;2023-01-19T03:19:19;99054.13;;;1.70;76.72
30949;BME280;17637;51.984;21.208;2023-01-19T03:22:24;99053.50;;;1.51;76.82
30949;BME280;17637;51.984;21.208;2023-01-19T03:24:59;99054.25;;;1.53;76.50
30949;BME280;17637;51.984;21.208;2023-01-19T03:27:35;99056.28;;;1.46;77.06
30949;BME280;17637;51.984;21.208;2023-01-19T03:30:18;99059.38;;;1.53;76.71
30949;BME280;17637;51.984;21.208;2023-01-19T03:33:04;99063.13;;;1.61;76.70
30949;BME280;17637;51.984;21.208;2023-01-19T03:35:42;99068.09;;;1.64;76.51
30949;BME280;17637;51.984;21.208;2023-01-19T03:38:18;99076.78;;;1.62;76.75
30949;BME280;17637;51.984;21.208;2023-01-19T03:41:00;99063.31;;;1.58;76.64
30949;BME280;17637;51.984;21.208;2023-01-19T03:43:34;99034.34;;;1.42;76.62
30949;BME280;17637;51.984;21.208;2023-01-19T03:46:07;99075.69;;;1.66;76.85
30949;BME280;17637;51.984;21.208;2023-01-19T03:48:41;99067.63;;;1.58;76.76
30949;BME280;17637;51.984;21.208;2023-01-19T03:51:15;99087.19;;;1.75;76.49
30949;BME280;17637;51.984;21.208;2023-01-19T03:53:47;99077.44;;;1.66;76.84
30949;BME280;17637;51.984;21.208;2023-01-19T03:56:22;99074.72;;;1.53;76.99
30949;BME280;17637;51.984;21.208;2023-01-19T03:58:55;99065.06;;;1.42;77.19
30949;BME280;17637;51.984;21.208;2023-01-19T04:01:27;99086.44;;;1.41;77.72
30949;BME280;17637;51.984;21.208;2023-01-19T04:03:59;99097.44;;;1.43;77.80
30949;BME280;17637;51.984;21.208;2023-01-19T04:06:31;99073.66;;;1.41;77.77
30949;BME280;17637;51.984;21.208;2023-01-19T04:09:04;99109.66;;;1.54;77.83
30949;BME280;17637;51.984;21.208;2023-01-19T04:11:36;99063.75;;;1.35;77.72
30949;BME280;17637;51.984;21.208;2023-01-19T04:14:07;99105.88;;;1.45;78.07
30949;BME280;17637;51.984;21.208;2023-01-19T04:16:40;99093.97;;;1.44;77.76
30949;BME280;17637;51.984;21.208;2023-01-19T04:19:12;99113.19;;;1.51;77.43
30949;BME280;17637;51.984;21.208;2023-01-19T04:21:47;99116.69;;;1.66;77.81
30949;BME280;17637;51.984;21.208;2023-01-19T04:24:19;99119.81;;;1.71;77.50
30949;BME280;17637;51.984;21.208;2023-01-19T04:26:51;99101.72;;;1.58;77.38
30949;BME280;17637;51.984;21.208;2023-01-19T04:29:24;99125.34;;;1.79;77.17
30949;BME280;17637;51.984;21.208;2023-01-19T04:31:56;99088.13;;;1.58;77.34
30949;BME280;17637;51.984;21.208;2023-01-19T04:34:28;99100.72;;;1.61;77.26
30949;BME280;17637;51.984;21.208;2023-01-19T04:37:00;99112.88;;;1.73;77.11
30949;BME280;17637;51.984;21.208;2023-01-19T04:39:32;99129.88;;;1.74;77.30
30949;BME280;17637;51.984;21.208;2023-01-19T04:42:04;99093.66;;;1.50;77.26
30949;BME280;17637;51.984;21.208;2023-01-19T04:44:37;99138.88;;;1.82;76.98
30949;BME280;17637;51.984;21.208;2023-01-19T04:47:09;99119.31;;;1.64;77.03
30949;BME280;17637;51.984;21.208;2023-01-19T04:49:41;99126.75;;;1.85;76.81
30949;BME280;17637;51.984;21.208;2023-01-19T04:52:13;99141.72;;;1.77;76.60
30949;BME280;17637;51.984;21.208;2023-01-19T04:54:45;99117.66;;;1.63;76.53
30949;BME280;17637;51.984;21.208;2023-01-19T04:57:17;99146.47;;;1.83;76.49
30949;BME280;17637;51.984;21.208;2023-01-19T04:59:50;99125.16;;;1.67;76.50
30949;BME280;17637;51.984;21.208;2023-01-19T05:02:23;99104.63;;;1.52;76.63
30949;BME280;17637;51.984;21.208;2023-01-19T05:04:55;99140.47;;;1.36;76.97
30949;BME280;17637;51.984;21.208;2023-01-19T05:07:27;99170.13;;;1.40;77.82
30949;BME280;17637;51.984;21.208;2023-01-19T05:09:59;99171.91;;;1.38;77.92
30949;BME280;17637;51.984;21.208;2023-01-19T05:12:32;99152.50;;;1.18;78.28
30949;BME280;17637;51.984;21.208;2023-01-19T05:15:04;99166.34;;;1.14;78.37
30949;BME280;17637;51.984;21.208;2023-01-19T05:17:38;99168.66;;;1.03;79.04
30949;BME280;17637;51.984;21.208;2023-01-19T05:20:11;99178.63;;;1.07;79.34
30949;BME280;17637;51.984;21.208;2023-01-19T05:22:50;99169.47;;;1.03;79.34
30949;BME280;17637;51.984;21.208;2023-01-19T05:25:22;99161.47;;;1.09;79.17
30949;BME280;17637;51.984;21.208;2023-01-19T05:27:54;99172.72;;;1.23;78.85
30949;BME280;17637;51.984;21.208;2023-01-19T05:30:27;99174.88;;;1.30;78.64
30949;BME280;17637;51.984;21.208;2023-01-19T05:32:59;99170.28;;;1.37;78.52
30949;BME280;17637;51.984;21.208;2023-01-19T05:35:31;99153.00;;;1.25;78.04
30949;BME280;17637;51.984;21.208;2023-01-19T05:38:06;99169.22;;;1.41;77.91
30949;BME280;17637;51.984;21.208;2023-01-19T05:40:38;99150.75;;;1.19;78.46
30949;BME280;17637;51.984;21.208;2023-01-19T05:43:10;99174.28;;;1.25;78.56
30949;BME280;17637;51.984;21.208;2023-01-19T05:45:42;99119.88;;;1.06;78.33
30949;BME280;17637;51.984;21.208;2023-01-19T05:48:14;99158.22;;;1.39;77.85
30949;BME280;17637;51.984;21.208;2023-01-19T05:50:46;99162.22;;;1.45;77.63
30949;BME280;17637;51.984;21.208;2023-01-19T05:53:20;99169.97;;;1.59;77.34
30949;BME280;17637;51.984;21.208;2023-01-19T05:55:52;99175.00;;;1.61;77.33
30949;BME280;17637;51.984;21.208;2023-01-19T05:58:24;99126.34;;;1.29;77.07
30949;BME280;17637;51.984;21.208;2023-01-19T06:00:56;99174.78;;;1.66;77.00
30949;BME280;17637;51.984;21.208;2023-01-19T06:03:28;99152.97;;;1.42;77.28
30949;BME280;17637;51.984;21.208;2023-01-19T06:06:00;99183.00;;;1.55;77.04
30949;BME280;17637;51.984;21.208;2023-01-19T06:08:32;99198.22;;;1.58;77.08
30949;BME280;17637;51.984;21.208;2023-01-19T06:11:05;99205.25;;;1.54;77.43
30949;BME280;17637;51.984;21.208;2023-01-19T06:13:38;99213.75;;;1.55;77.29
30949;BME280;17637;51.984;21.208;2023-01-19T06:16:13;99204.88;;;1.44;77.25
30949;BME280;17637;51.984;21.208;2023-01-19T06:18:45;99229.00;;;1.56;77.08
30949;BME280;17637;51.984;21.208;2023-01-19T06:21:17;99194.56;;;1.30;76.83
30949;BME280;17637;51.984;21.208;2023-01-19T06:23:49;99236.06;;;1.53;76.63
30949;BME280;17637;51.984;21.208;2023-01-19T06:26:21;99240.66;;;1.46;76.70
30949;BME280;17637;51.984;21.208;2023-01-19T06:28:54;99253.50;;;1.62;76.72
30949;BME280;17637;51.984;21.208;2023-01-19T06:31:26;99248.91;;;1.51;77.10
30949;BME280;17637;51.984;21.208;2023-01-19T06:33:58;99263.97;;;1.57;76.58
30949;BME280;17637;51.984;21.208;2023-01-19T06:36:33;99262.13;;;1.43;76.85
30949;BME280;17637;51.984;21.208;2023-01-19T06:39:05;99232.94;;;1.30;77.37
30949;BME280;17637;51.984;21.208;2023-01-19T06:41:37;99244.78;;;1.48;76.97
30949;BME280;17637;51.984;21.208;2023-01-19T06:44:09;99265.44;;;1.45;77.29
30949;BME280;17637;51.984;21.208;2023-01-19T06:46:41;99254.28;;;1.46;77.00
30949;BME280;17637;51.984;21.208;2023-01-19T06:49:14;99261.31;;;1.43;76.91
30949;BME280;17637;51.984;21.208;2023-01-19T06:51:46;99253.94;;;1.37;77.33
30949;BME280;17637;51.984;21.208;2023-01-19T06:54:18;99240.25;;;1.20;77.43
30949;BME280;17637;51.984;21.208;2023-01-19T06:56:49;99226.25;;;1.27;77.35
30949;BME280;17637;51.984;21.208;2023-01-19T06:59:22;99228.44;;;1.18;77.72
30949;BME280;17637;51.984;21.208;2023-01-19T07:01:55;99210.78;;;1.13;77.52
30949;BME280;17637;51.984;21.208;2023-01-19T07:04:28;99243.94;;;1.32;77.80
30949;BME280;17637;51.984;21.208;2023-01-19T07:07:00;99242.97;;;1.35;77.39
30949;BME280;17637;51.984;21.208;2023-01-19T07:09:32;99214.56;;;1.22;77.24
30949;BME280;17637;51.984;21.208;2023-01-19T07:12:04;99236.44;;;1.11;77.94
30949;BME280;17637;51.984;21.208;2023-01-19T07:14:36;99239.63;;;1.33;77.76
30949;BME280;17637;51.984;21.208;2023-01-19T07:17:09;99241.03;;;1.38;77.77
30949;BME280;17637;51.984;21.208;2023-01-19T07:19:41;99254.03;;;1.51;77.60
30949;BME280;17637;51.984;21.208;2023-01-19T07:22:13;99256.88;;;1.62;77.39
30949;BME280;17637;51.984;21.208;2023-01-19T07:24:45;99241.31;;;1.50;77.30
30949;BME280;17637;51.984;21.208;2023-01-19T07:27:17;99252.75;;;1.60;76.79
30949;BME280;17637;51.984;21.208;2023-01-19T07:29:49;99259.84;;;1.55;76.64
30949;BME280;17637;51.984;21.208;2023-01-19T07:32:21;99245.13;;;1.58;77.25
30949;BME280;17637;51.984;21.208;2023-01-19T07:34:53;99254.78;;;1.53;76.77
30949;BME280;17637;51.984;21.208;2023-01-19T07:37:25;99242.00;;;1.53;76.42
30949;BME280;17637;51.984;21.208;2023-01-19T07:39:57;99241.19;;;1.53;76.93
30949;BME280;17637;51.984;21.208;2023-01-19T07:42:29;99247.88;;;1.55;76.53
30949;BME280;17637;51.984;21.208;2023-01-19T07:45:01;99261.31;;;1.43;76.57
30949;BME280;17637;51.984;21.208;2023-01-19T07:47:33;99245.66;;;1.31;76.78
30949;BME280;17637;51.984;21.208;2023-01-19T07:50:05;99260.72;;;1.54;76.38
30949;BME280;17637;51.984;21.208;2023-01-19T07:52:37;99239.31;;;1.39;76.23
30949;BME280;17637;51.984;21.208;2023-01-19T07:55:09;99273.41;;;1.73;75.94
30949;BME280;17637;51.984;21.208;2023-01-19T07:57:41;99269.63;;;1.80;75.80
30949;BME280;17637;51.984;21.208;2023-01-19T08:00:13;99249.94;;;1.64;75.77
30949;BME280;17637;51.984;21.208;2023-01-19T08:02:45;99248.28;;;1.63;75.79
30949;BME280;17637;51.984;21.208;2023-01-19T08:05:20;99274.09;;;1.76;76.09
30949;BME280;17637;51.984;21.208;2023-01-19T08:07:52;99275.75;;;1.77;75.99
30949;BME280;17637;51.984;21.208;2023-01-19T08:10:26;99222.09;;;1.42;76.34
30949;BME280;17637;51.984;21.208;2023-01-19T08:12:58;99241.22;;;1.51;76.55
30949;BME280;17637;51.984;21.208;2023-01-19T08:15:31;99260.41;;;1.60;76.60
30949;BME280;17637;51.984;21.208;2023-01-19T08:18:03;99211.75;;;1.44;76.14
30949;BME280;17637;51.984;21.208;2023-01-19T08:20:37;99246.41;;;1.67;76.21
30949;BME280;17637;51.984;21.208;2023-01-19T08:23:09;99222.22;;;1.39;76.23
30949;BME280;17637;51.984;21.208;2023-01-19T08:25:42;99280.94;;;1.76;76.73
30949;BME280;17637;51.984;21.208;2023-01-19T08:28:17;99296.75;;;1.84;76.93
30949;BME280;17637;51.984;21.208;2023-01-19T08:30:49;99230.25;;;1.49;76.35
30949;BME280;17637;51.984;21.208;2023-01-19T08:33:25;99269.97;;;1.90;75.93
30949;BME280;17637;51.984;21.208;2023-01-19T08:35:57;99259.16;;;1.85;75.66
30949;BME280;17637;51.984;21.208;2023-01-19T08:38:29;99286.00;;;1.93;75.41
30949;BME280;17637;51.984;21.208;2023-01-19T08:41:01;99280.88;;;1.93;75.36
30949;BME280;17637;51.984;21.208;2023-01-19T08:43:33;99254.31;;;1.62;76.26
30949;BME280;17637;51.984;21.208;2023-01-19T08:46:05;99277.22;;;1.82;75.79
30949;BME280;17637;51.984;21.208;2023-01-19T08:48:37;99286.47;;;1.68;76.59
30949;BME280;17637;51.984;21.208;2023-01-19T08:51:14;99286.13;;;1.74;76.37
30949;BME280;17637;51.984;21.208;2023-01-19T08:53:46;99283.38;;;1.61;76.58
30949;BME280;17637;51.984;21.208;2023-01-19T08:56:18;99294.09;;;1.86;76.99
30949;BME280;17637;51.984;21.208;2023-01-19T08:58:51;99292.09;;;1.91;76.71
30949;BME280;17637;51.984;21.208;2023-01-19T09:01:39;99302.03;;;1.97;76.11
30949;BME280;17637;51.984;21.208;2023-01-19T09:04:12;99282.44;;;1.80;76.39
30949;BME280;17637;51.984;21.208;2023-01-19T09:06:44;99249.28;;;1.61;76.50
30949;BME280;17637;51.984;21.208;2023-01-19T09:09:16;99253.91;;;1.70;76.56
30949;BME280;17637;51.984;21.208;2023-01-19T09:11:48;99276.41;;;1.81;76.41
30949;BME280;17637;51.984;21.208;2023-01-19T09:14:20;99303.19;;;2.07;76.61
30949;BME280;17637;51.984;21.208;2023-01-19T09:16:52;99289.31;;;2.11;75.44
30949;BME280;17637;51.984;21.208;2023-01-19T09:19:24;99292.47;;;2.01;75.13
30949;BME280;17637;51.984;21.208;2023-01-19T09:21:56;99305.28;;;2.01;75.46
30949;BME280;17637;51.984;21.208;2023-01-19T09:24:30;99306.25;;;1.98;76.04
30949;BME280;17637;51.984;21.208;2023-01-19T09:27:02;99320.09;;;2.27;75.07
30949;BME280;17637;51.984;21.208;2023-01-19T09:29:34;99326.19;;;2.41;75.05
30949;BME280;17637;51.984;21.208;2023-01-19T09:32:07;99313.88;;;2.32;74.54
30949;BME280;17637;51.984;21.208;2023-01-19T09:34:41;99322.50;;;2.15;75.08
30949;BME280;17637;51.984;21.208;2023-01-19T09:37:14;99300.50;;;2.10;75.70
30949;BME280;17637;51.984;21.208;2023-01-19T09:39:46;99320.16;;;2.42;74.92
30949;BME280;17637;51.984;21.208;2023-01-19T09:42:41;99333.13;;;2.71;74.39
30949;BME280;17637;51.984;21.208;2023-01-19T09:45:25;99321.69;;;2.76;74.24
30949;BME280;17637;51.984;21.208;2023-01-19T09:47:58;99317.09;;;2.67;73.88
30949;BME280;17637;51.984;21.208;2023-01-19T09:50:34;99322.72;;;2.42;73.49
30949;BME280;17637;51.984;21.208;2023-01-19T09:53:14;99315.31;;;2.37;74.25
30949;BME280;17637;51.984;21.208;2023-01-19T09:55:47;99319.19;;;2.28;74.39
30949;BME280;17637;51.984;21.208;2023-01-19T09:58:21;99280.38;;;2.19;74.36
30949;BME280;17637;51.984;21.208;2023-01-19T10:01:00;99301.94;;;2.62;74.21
30949;BME280;17637;51.984;21.208;2023-01-19T10:03:35;99308.06;;;2.76;73.83
30949;BME280;17637;51.984;21.208;2023-01-19T10:06:12;99295.38;;;2.73;73.63
30949;BME280;17637;51.984;21.208;2023-01-19T10:09:22;99280.22;;;2.38;74.17
30949;BME280;17637;51.984;21.208;2023-01-19T10:11:56;99277.69;;;2.68;73.93
30949;BME280;17637;51.984;21.208;2023-01-19T10:14:41;99273.91;;;2.59;73.46
30949;BME280;17637;51.984;21.208;2023-01-19T10:20:20;99252.28;;;2.63;73.39
30949;BME280;17637;51.984;21.208;2023-01-19T10:22:55;99249.69;;;2.49;73.24
30949;BME280;17637;51.984;21.208;2023-01-19T10:25:30;99267.22;;;2.41;73.94
30949;BME280;17637;51.984;21.208;2023-01-19T10:28:04;99250.50;;;2.50;73.80
30949;BME280;17637;51.984;21.208;2023-01-19T10:30:36;99234.69;;;2.57;73.97
30949;BME280;17637;51.984;21.208;2023-01-19T10:33:11;99238.16;;;2.56;73.36
30949;BME280;17637;51.984;21.208;2023-01-19T10:35:44;99248.28;;;2.74;73.33
30949;BME280;17637;51.984;21.208;2023-01-19T10:38:19;99247.59;;;2.86;73.08
30949;BME280;17637;51.984;21.208;2023-01-19T10:40:58;99263.13;;;2.99;72.59
30949;BME280;17637;51.984;21.208;2023-01-19T10:43:43;99243.81;;;2.77;73.40
30949;BME280;17637;51.984;21.208;2023-01-19T10:49:05;99248.06;;;2.93;72.02
30949;BME280;17637;51.984;21.208;2023-01-19T10:51:46;99268.22;;;2.85;72.33
30949;BME280;17637;51.984;21.208;2023-01-19T10:54:20;99253.50;;;3.03;72.82
30949;BME280;17637;51.984;21.208;2023-01-19T10:56:58;99250.38;;;3.12;73.27
30949;BME280;17637;51.984;21.208;2023-01-19T10:59:48;99252.41;;;3.21;72.63
30949;BME280;17637;51.984;21.208;2023-01-19T11:02:25;99258.28;;;3.23;72.59
30949;BME280;17637;51.984;21.208;2023-01-19T11:05:00;99229.84;;;3.12;72.51
30949;BME280;17637;51.984;21.208;2023-01-19T11:07:32;99246.34;;;3.08;72.23
30949;BME280;17637;51.984;21.208;2023-01-19T11:12:51;99241.88;;;3.11;72.53
30949;BME280;17637;51.984;21.208;2023-01-19T11:15:45;99236.81;;;3.10;72.22
30949;BME280;17637;51.984;21.208;2023-01-19T11:18:36;99243.03;;;3.06;72.63
30949;BME280;17637;51.984;21.208;2023-01-19T11:21:11;99217.53;;;2.88;71.88
30949;BME280;17637;51.984;21.208;2023-01-19T11:23:52;99202.94;;;2.74;71.92
30949;BME280;17637;51.984;21.208;2023-01-19T11:26:33;99232.19;;;2.86;71.90
30949;BME280;17637;51.984;21.208;2023-01-19T11:29:15;99227.75;;;2.74;71.59
30949;BME280;17637;51.984;21.208;2023-01-19T11:31:49;99239.44;;;2.79;72.10
30949;BME280;17637;51.984;21.208;2023-01-19T11:34:25;99243.75;;;2.93;72.22
30949;BME280;17637;51.984;21.208;2023-01-19T11:37:04;99237.50;;;2.83;72.87
30949;BME280;17637;51.984;21.208;2023-01-19T11:39:47;99239.72;;;2.89;72.57
30949;BME280;17637;51.984;21.208;2023-01-19T11:42:20;99225.09;;;2.75;72.54
30949;BME280;17637;51.984;21.208;2023-01-19T11:45:09;99227.16;;;2.85;72.13
30949;BME280;17637;51.984;21.208;2023-01-19T11:47:44;99228.66;;;2.73;73.08
30949;BME280;17637;51.984;21.208;2023-01-19T11:50:28;99219.28;;;2.57;73.69
30949;BME280;17637;51.984;21.208;2023-01-19T11:53:21;99221.34;;;2.67;72.78
30949;BME280;17637;51.984;21.208;2023-01-19T11:56:00;99228.72;;;2.57;73.97
30949;BME280;17637;51.984;21.208;2023-01-19T11:58:43;99223.03;;;2.52;74.67
30949;BME280;17637;51.984;21.208;2023-01-19T12:01:22;99230.41;;;2.42;74.67
30949;BME280;17637;51.984;21.208;2023-01-19T12:04:36;99237.19;;;2.43;75.05
30949;BME280;17637;51.984;21.208;2023-01-19T12:07:03;99227.13;;;2.24;74.66
30949;BME280;17637;51.984;21.208;2023-01-19T12:12:22;99238.19;;;2.40;74.66
30949;BME280;17637;51.984;21.208;2023-01-19T12:15:24;99231.94;;;2.30;74.87
30949;BME280;17637;51.984;21.208;2023-01-19T12:17:59;99217.03;;;2.37;74.97
30949;BME280;17637;51.984;21.208;2023-01-19T12:20:39;99213.22;;;2.28;74.74
30949;BME280;17637;51.984;21.208;2023-01-19T12:29:19;99202.25;;;2.26;75.60
30949;BME280;17637;51.984;21.208;2023-01-19T12:34:45;99208.78;;;2.16;75.04
30949;BME280;17637;51.984;21.208;2023-01-19T12:40:22;99221.09;;;2.09;75.24
30949;BME280;17637;51.984;21.208;2023-01-19T12:43:00;99212.94;;;2.18;75.25
30949;BME280;17637;51.984;21.208;2023-01-19T12:45:35;99196.88;;;1.99;75.37
30949;BME280;17637;51.984;21.208;2023-01-19T12:48:23;99210.75;;;2.26;75.20
30949;BME280;17637;51.984;21.208;2023-01-19T12:50:56;99206.88;;;2.19;75.14
30949;BME280;17637;51.984;21.208;2023-01-19T12:53:28;99220.28;;;2.24;75.11
30949;BME280;17637;51.984;21.208;2023-01-19T12:56:03;99201.91;;;2.16;75.20
30949;BME280;17637;51.984;21.208;2023-01-19T12:58:47;99193.00;;;2.23;74.80
30949;BME280;17637;51.984;21.208;2023-01-19T13:01:20;99200.34;;;2.29;74.67
30949;BME280;17637;51.984;21.208;2023-01-19T13:04:05;99202.47;;;2.37;74.58
30949;BME280;17637;51.984;21.208;2023-01-19T13:09:33;99213.22;;;2.28;75.03
30949;BME280;17637;51.984;21.208;2023-01-19T13:14:45;99220.19;;;2.26;74.99
30949;BME280;17637;51.984;21.208;2023-01-19T13:17:26;99186.16;;;2.08;75.14
30949;BME280;17637;51.984;21.208;2023-01-19T13:20:13;99211.41;;;2.14;75.29
30949;BME280;17637;51.984;21.208;2023-01-19T13:23:15;99195.75;;;2.04;75.50
30949;BME280;17637;51.984;21.208;2023-01-19T13:25:50;99207.00;;;2.02;75.48
30949;BME280;17637;51.984;21.208;2023-01-19T13:28:31;99211.84;;;2.06;75.65
30949;BME280;17637;51.984;21.208;2023-01-19T13:31:03;99208.56;;;2.04;75.53
30949;BME280;17637;51.984;21.208;2023-01-19T13:33:47;99184.72;;;2.02;75.33
30949;BME280;17637;51.984;21.208;2023-01-19T13:36:42;99215.91;;;2.10;75.75
30949;BME280;17637;51.984;21.208;2023-01-19T13:39:28;99225.22;;;2.11;75.95
30949;BME280;17637;51.984;21.208;2023-01-19T13:42:04;99193.94;;;1.90;75.82
30949;BME280;17637;51.984;21.208;2023-01-19T13:44:40;99190.75;;;2.01;75.66
30949;BME280;17637;51.984;21.208;2023-01-19T13:47:19;99217.97;;;2.20;75.50
30949;BME280;17637;51.984;21.208;2023-01-19T13:49:56;99231.25;;;2.26;75.50
30949;BME280;17637;51.984;21.208;2023-01-19T13:52:29;99228.97;;;2.22;75.65
30949;BME280;17637;51.984;21.208;2023-01-19T13:55:02;99229.78;;;2.22;75.37
30949;BME280;17637;51.984;21.208;2023-01-19T13:57:40;99236.25;;;2.29;75.50
30949;BME280;17637;51.984;21.208;2023-01-19T14:00:25;99230.78;;;2.20;75.60
30949;BME280;17637;51.984;21.208;2023-01-19T14:03:15;99213.59;;;2.06;75.99
30949;BME280;17637;51.984;21.208;2023-01-19T14:05:50;99205.50;;;1.98;75.83
30949;BME280;17637;51.984;21.208;2023-01-19T14:08:23;99230.28;;;1.97;76.31
30949;BME280;17637;51.984;21.208;2023-01-19T14:13:33;99209.69;;;1.99;76.41
30949;BME280;17637;51.984;21.208;2023-01-19T14:16:16;99223.66;;;2.09;76.21
30949;BME280;17637;51.984;21.208;2023-01-19T14:18:58;99235.44;;;2.13;76.24
30949;BME280;17637;51.984;21.208;2023-01-19T14:21:38;99224.34;;;1.96;76.85
30949;BME280;17637;51.984;21.208;2023-01-19T14:24:18;99228.63;;;2.12;76.53
30949;BME280;17637;51.984;21.208;2023-01-19T14:26:52;99238.13;;;2.10;76.34
30949;BME280;17637;51.984;21.208;2023-01-19T14:29:32;99240.03;;;2.22;76.57
30949;BME280;17637;51.984;21.208;2023-01-19T14:37:36;99246.00;;;2.07;76.59